Time;durP1;ratioP1;P1;durP2;ratioP2;P2;SDS_P1;SDS_P2;PMS_P1;PMS_P2;Temp;Humidity;BMP_temperature;BMP_pressure;BME280_temperature;BME280_humidity;BME280_pressure;Samples;Min_cycle;Max_cycle;Signal;HPM_P1;HPM_P2
2021/07/11 00:00:32;;;;;;;3.40;2.13;;;28.60;54.90;;;;;;5052389;28;20115;-58
2021/07/11 00:02:59;;;;;;;5.07;3.45;;;28.60;54.70;;;;;;5052190;28;20033;-58
2021/07/11 00:05:26;;;;;;;3.72;2.10;;;28.70;54.70;;;;;;5052159;28;20025;-58
2021/07/11 00:07:53;;;;;;;9.90;3.42;;;28.70;54.60;;;;;;5051572;28;20086;-58
2021/07/11 00:10:20;;;;;;;6.85;2.80;;;28.70;55.70;;;;;;5052037;28;20084;-58
2021/07/11 00:12:48;;;;;;;7.10;3.25;;;28.70;56.10;;;;;;5044673;28;20072;-58
2021/07/11 00:15:16;;;;;;;10.27;4.07;;;28.60;56.20;;;;;;5046755;28;20029;-58
2021/07/11 00:17:43;;;;;;;8.20;3.53;;;28.60;56.40;;;;;;5047336;28;20033;-59
2021/07/11 00:20:13;;;;;;;10.55;3.70;;;28.60;56.60;;;;;;5040969;28;20049;-58
2021/07/11 00:22:40;;;;;;;4.68;3.00;;;28.50;56.60;;;;;;5049271;28;20072;-59
2021/07/11 00:25:07;;;;;;;9.82;3.45;;;28.50;56.10;;;;;;5049894;28;20124;-58
2021/07/11 00:27:34;;;;;;;9.43;3.63;;;28.50;56.90;;;;;;5049766;28;20024;-58
2021/07/11 00:30:00;;;;;;;12.35;3.42;;;28.50;57.00;;;;;;5031996;28;20033;-59
2021/07/11 00:32:26;;;;;;;11.25;4.05;;;28.50;56.90;;;;;;5050789;28;20467;-58
2021/07/11 00:34:52;;;;;;;8.30;4.13;;;28.40;57.10;;;;;;5050444;28;20021;-58
2021/07/11 00:37:19;;;;;;;10.18;3.90;;;28.40;57.40;;;;;;5050506;28;20278;-59
2021/07/11 00:39:45;;;;;;;4.28;2.80;;;28.30;57.50;;;;;;5030192;28;20357;-58
2021/07/11 00:42:13;;;;;;;3.80;2.67;;;28.30;57.20;;;;;;5032284;28;20037;-59
2021/07/11 00:44:40;;;;;;;7.18;3.10;;;28.40;57.00;;;;;;5032173;28;20031;-59
2021/07/11 00:47:08;;;;;;;9.55;3.45;;;28.40;56.70;;;;;;5030935;28;20029;-59
2021/07/11 00:49:35;;;;;;;5.75;3.40;;;28.40;56.30;;;;;;5032125;28;20484;-59
2021/07/11 00:52:05;;;;;;;8.18;4.05;;;28.40;56.10;;;;;;5027359;28;20431;-59
2021/07/11 00:54:31;;;;;;;7.45;3.70;;;28.40;56.00;;;;;;5050041;28;20036;-59
2021/07/11 00:56:58;;;;;;;5.60;3.10;;;28.50;55.90;;;;;;5050230;28;20380;-60
2021/07/11 00:59:26;;;;;;;7.43;2.85;;;28.50;55.80;;;;;;5030126;28;20021;-59
2021/07/11 01:02:11;;;;;;;9.05;3.28;;;28.50;55.80;;;;;;5049305;28;20040;-59
2021/07/11 01:05:06;;;;;;;9.07;2.97;;;28.40;55.80;;;;;;5030282;28;20491;-59
2021/07/11 01:07:43;;;;;;;11.10;3.65;;;28.50;55.60;;;;;;5033062;28;20480;-59
2021/07/11 01:10:22;;;;;;;7.70;2.65;;;28.50;55.60;;;;;;5008464;28;20048;-59
2021/07/11 01:12:52;;;;;;;6.32;3.47;;;28.50;55.60;;;;;;5025793;28;20548;-59
2021/07/11 01:15:19;;;;;;;5.53;2.90;;;28.50;55.50;;;;;;5029473;28;20057;-59
2021/07/11 01:17:51;;;;;;;11.13;4.15;;;28.50;55.60;;;;;;5033608;28;20825;-59
2021/07/11 01:20:24;;;;;;;10.20;4.07;;;28.50;55.60;;;;;;5049454;28;20045;-59
2021/07/11 01:22:55;;;;;;;5.57;2.75;;;28.40;55.70;;;;;;5051147;28;20044;-58
2021/07/11 01:25:37;;;;;;;10.75;3.88;;;28.40;55.60;;;;;;5049923;28;20033;-58
2021/07/11 01:28:10;;;;;;;6.65;3.47;;;28.40;55.80;;;;;;5049966;28;20091;-57
2021/07/11 01:30:37;;;;;;;8.30;4.75;;;28.40;55.70;;;;;;5049395;28;20380;-58
2021/07/11 01:33:06;;;;;;;14.77;4.35;;;28.40;55.70;;;;;;5051335;28;20025;-58
2021/07/11 01:35:35;;;;;;;8.85;3.67;;;28.40;55.80;;;;;;5018178;28;20057;-58
2021/07/11 01:38:03;;;;;;;7.53;3.33;;;28.40;55.80;;;;;;5033803;28;20083;-59
2021/07/11 01:40:30;;;;;;;10.50;3.65;;;28.40;55.70;;;;;;5034474;28;20025;-59
2021/07/11 01:42:57;;;;;;;11.98;4.22;;;28.40;55.70;;;;;;5051680;28;20041;-59
2021/07/11 01:45:23;;;;;;;5.55;3.00;;;28.40;55.80;;;;;;5046741;28;20391;-58
2021/07/11 01:47:54;;;;;;;7.70;3.50;;;28.40;55.70;;;;;;5036916;28;20022;-59
2021/07/11 01:50:23;;;;;;;7.43;3.53;;;28.40;55.60;;;;;;5050249;28;20563;-59
2021/07/11 01:52:51;;;;;;;10.15;3.42;;;28.40;55.60;;;;;;5053542;28;20026;-59
2021/07/11 01:55:18;;;;;;;5.45;2.78;;;28.50;55.60;;;;;;5053535;28;20029;-59
2021/07/11 01:57:45;;;;;;;7.93;3.58;;;28.40;55.50;;;;;;5053462;28;20025;-59
2021/07/11 02:00:15;;;;;;;7.00;3.30;;;28.40;55.50;;;;;;5053539;28;20029;-59
2021/07/11 02:02:46;;;;;;;9.10;3.35;;;28.40;55.50;;;;;;5042822;28;20041;-58
2021/07/11 02:05:38;;;;;;;9.77;3.55;;;28.40;55.50;;;;;;5051409;28;20041;-59
2021/07/11 02:08:07;;;;;;;7.43;3.63;;;28.30;55.50;;;;;;5052951;28;20021;-59
2021/07/11 02:10:36;;;;;;;12.27;4.60;;;28.30;55.60;;;;;;5053003;28;20406;-59
2021/07/11 02:13:28;;;;;;;10.48;3.40;;;28.30;55.50;;;;;;5039490;28;20025;-59
2021/07/11 02:16:04;;;;;;;;;;;28.30;55.60;;;;;;5053492;28;20037;-59
2021/07/11 02:18:32;;;;;;;3.90;2.65;;;28.30;55.70;;;;;;5023461;28;20275;-59
2021/07/11 02:20:59;;;;;;;6.50;3.60;;;28.40;55.30;;;;;;5054300;28;20075;-58
2021/07/11 02:23:29;;;;;;;4.43;2.78;;;28.40;55.40;;;;;;5052586;28;20036;-59
2021/07/11 02:25:59;;;;;;;8.18;2.80;;;28.40;55.40;;;;;;5052699;28;20538;-59
2021/07/11 02:28:28;;;;;;;6.68;2.80;;;28.40;55.30;;;;;;5036731;28;20376;-58
2021/07/11 02:30:58;;;;;;;4.25;2.80;;;28.40;55.30;;;;;;5054204;28;20044;-58
2021/07/11 02:33:32;;;;;;;;;;;28.40;55.30;;;;;;5054741;28;20025;-58
2021/07/11 02:36:01;;;;;;;7.80;3.10;;;28.50;55.50;;;;;;5053201;28;19913;-58
2021/07/11 02:38:48;;;;;;;5.15;2.60;;;28.50;55.20;;;;;;5047402;28;20110;-58
2021/07/11 02:41:18;;;;;;;8.13;3.03;;;28.50;55.20;;;;;;5036699;28;20040;-58
2021/07/11 02:43:46;;;;;;;10.45;3.70;;;28.50;55.60;;;;;;5051910;28;20033;-58
2021/07/11 02:46:24;;;;;;;11.23;3.75;;;28.40;55.90;;;;;;5052897;28;20104;-59
2021/07/11 02:48:53;;;;;;;11.75;3.58;;;28.30;55.90;;;;;;5052610;28;20025;-59
2021/07/11 02:51:24;;;;;;;9.63;4.05;;;28.30;55.90;;;;;;5052635;28;20090;-59
2021/07/11 02:53:57;;;;;;;10.43;3.95;;;28.30;56.40;;;;;;5052172;28;20075;-58
2021/07/11 02:56:25;;;;;;;10.32;3.70;;;28.30;56.10;;;;;;5053042;28;20136;-58
2021/07/11 02:58:55;;;;;;;8.60;4.20;;;28.30;56.50;;;;;;5052625;28;20048;-58
2021/07/11 03:01:24;;;;;;;9.85;5.03;;;28.20;56.40;;;;;;5051003;28;20037;-59
2021/07/11 03:03:53;;;;;;;8.23;3.53;;;28.30;56.30;;;;;;5053597;28;20112;-58
2021/07/11 03:06:19;;;;;;;15.43;5.22;;;28.30;56.30;;;;;;5053424;28;20037;-58
2021/07/11 03:08:46;;;;;;;4.38;3.55;;;28.30;56.60;;;;;;5051912;28;20029;-58
2021/07/11 03:11:24;;;;;;;6.88;3.70;;;28.30;56.60;;;;;;5052116;28;20020;-58
2021/07/11 03:13:53;;;;;;;9.23;4.03;;;28.30;56.80;;;;;;5051737;28;20032;-58
2021/07/11 03:16:21;;;;;;;8.82;4.43;;;28.20;56.90;;;;;;5051752;28;20033;-58
2021/07/11 03:18:53;;;;;;;14.68;4.60;;;28.20;56.80;;;;;;5051660;28;20526;-57
2021/07/11 03:21:23;;;;;;;12.70;4.00;;;28.20;57.00;;;;;;5051174;28;20094;-58
2021/07/11 03:23:52;;;;;;;12.18;5.28;;;28.20;56.80;;;;;;5035086;28;20064;-58
2021/07/11 03:26:19;;;;;;;8.60;4.43;;;28.20;56.80;;;;;;5048701;28;20025;-58
2021/07/11 03:28:49;;;;;;;10.15;3.97;;;28.20;56.60;;;;;;5053004;28;20021;-58
2021/07/11 03:31:18;;;;;;;9.65;4.47;;;28.20;56.60;;;;;;5052836;28;20036;-58
2021/07/11 03:33:50;;;;;;;5.55;3.67;;;28.20;56.50;;;;;;5053003;28;20032;-59
2021/07/11 03:36:18;;;;;;;8.93;3.28;;;28.30;56.40;;;;;;5051411;28;20025;-58
2021/07/11 03:38:49;;;;;;;11.02;4.47;;;28.30;56.30;;;;;;5051717;28;20145;-58
2021/07/11 03:41:21;;;;;;;10.68;4.00;;;28.30;56.40;;;;;;5052794;28;20128;-58
2021/07/11 03:43:56;;;;;;;13.07;5.20;;;28.40;56.30;;;;;;5051083;28;20052;-58
2021/07/11 03:46:27;;;;;;;12.30;4.70;;;28.40;56.40;;;;;;5051120;28;20349;-58
2021/07/11 03:48:59;;;;;;;7.22;4.78;;;28.40;56.30;;;;;;5052860;28;20036;-58
2021/07/11 03:51:32;;;;;;;11.63;4.50;;;28.40;56.50;;;;;;5050999;28;20026;-58
2021/07/11 03:53:59;;;;;;;11.63;4.60;;;28.40;56.30;;;;;;5046645;28;20119;-59
2021/07/11 03:56:30;;;;;;;10.27;4.88;;;28.30;56.30;;;;;;5050496;28;20033;-59
2021/07/11 03:58:58;;;;;;;9.38;5.72;;;28.30;56.50;;;;;;5051011;28;20346;-58
2021/07/11 04:01:30;;;;;;;8.70;4.07;;;28.30;56.40;;;;;;5051829;28;20043;-58
2021/07/11 04:03:58;;;;;;;10.65;4.47;;;28.30;56.50;;;;;;5051186;28;20036;-58
2021/07/11 04:06:26;;;;;;;7.30;4.63;;;28.20;56.50;;;;;;5051876;28;20048;-58
2021/07/11 04:09:04;;;;;;;8.57;4.28;;;28.20;56.40;;;;;;5052424;28;20037;-59
2021/07/11 04:11:35;;;;;;;8.20;4.28;;;28.10;56.50;;;;;;5051537;28;20036;-57
2021/07/11 04:14:01;;;;;;;;;;;28.20;56.50;;;;;;5052150;28;20159;-58
2021/07/11 04:16:29;;;;;;;8.02;4.25;;;28.10;56.40;;;;;;5051142;28;19995;-60
2021/07/11 04:18:58;;;;;;;11.32;4.22;;;28.30;56.30;;;;;;5049771;28;20060;-58
2021/07/11 04:21:27;;;;;;;10.20;5.47;;;28.20;56.10;;;;;;5050768;28;20039;-58
2021/07/11 04:23:56;;;;;;;5.72;3.78;;;28.20;56.10;;;;;;5051787;28;20033;-58
2021/07/11 04:26:24;;;;;;;6.88;4.13;;;28.20;56.10;;;;;;5051529;28;20029;-59
2021/07/11 04:28:51;;;;;;;9.45;4.05;;;28.20;56.20;;;;;;5046670;28;20025;-58
2021/07/11 04:31:18;;;;;;;7.18;3.88;;;28.20;56.20;;;;;;5051126;28;20443;-58
2021/07/11 04:33:46;;;;;;;9.45;4.45;;;28.20;56.20;;;;;;5050529;28;20495;-58
2021/07/11 04:36:12;;;;;;;9.98;5.15;;;28.20;56.20;;;;;;5051767;28;20021;-59
2021/07/11 04:38:38;;;;;;;13.60;4.28;;;28.10;56.20;;;;;;5049141;28;20959;-58
2021/07/11 04:41:06;;;;;;;12.18;4.45;;;28.10;56.30;;;;;;5051253;28;20092;-58
2021/07/11 04:43:32;;;;;;;11.85;4.05;;;28.10;56.50;;;;;;5050301;28;20037;-58
2021/07/11 04:45:58;;;;;;;8.63;4.75;;;28.00;56.40;;;;;;5051704;28;20037;-58
2021/07/11 04:48:24;;;;;;;10.07;4.57;;;28.10;56.40;;;;;;5050194;28;20024;-58
2021/07/11 04:50:50;;;;;;;9.05;4.28;;;28.00;56.50;;;;;;5051429;28;20104;-58
2021/07/11 04:53:17;;;;;;;8.60;4.38;;;28.00;56.60;;;;;;5051432;28;20482;-58
2021/07/11 04:55:45;;;;;;;14.82;5.40;;;27.90;56.70;;;;;;5051196;28;20029;-58
2021/07/11 04:58:11;;;;;;;9.98;4.55;;;28.00;56.90;;;;;;5051827;28;20053;-59
2021/07/11 05:00:38;;;;;;;9.23;4.47;;;27.80;57.10;;;;;;5049865;28;20100;-59
2021/07/11 05:03:03;;;;;;;10.82;5.25;;;27.80;57.10;;;;;;5051113;28;20225;-59
2021/07/11 05:05:29;;;;;;;13.52;6.05;;;27.80;57.00;;;;;;5051140;28;20115;-58
2021/07/11 05:07:55;;;;;;;12.02;4.68;;;27.80;57.20;;;;;;5049390;28;20036;-58
2021/07/11 05:10:21;;;;;;;11.45;4.80;;;27.70;57.30;;;;;;5050697;28;20383;-59
2021/07/11 05:12:47;;;;;;;10.00;4.80;;;27.70;57.40;;;;;;5051251;28;20076;-58
2021/07/11 05:15:13;;;;;;;10.93;4.32;;;27.70;57.50;;;;;;5050390;28;20021;-58
2021/07/11 05:17:39;;;;;;;10.98;4.50;;;27.70;57.30;;;;;;5051678;28;20412;-59
2021/07/11 05:20:07;;;;;;;14.70;5.22;;;27.70;57.40;;;;;;5050638;28;20114;-58
2021/07/11 05:22:33;;;;;;;8.27;5.05;;;27.70;57.30;;;;;;5051192;28;20045;-58
2021/07/11 05:24:59;;;;;;;11.50;4.68;;;27.70;57.20;;;;;;5050845;28;20017;-59
2021/07/11 05:27:27;;;;;;;12.32;5.10;;;27.80;57.20;;;;;;5047580;28;20082;-58
2021/07/11 05:29:53;;;;;;;11.10;4.60;;;27.80;57.20;;;;;;5040219;28;20028;-58
2021/07/11 05:32:19;;;;;;;11.52;5.13;;;27.70;57.10;;;;;;5049218;28;20419;-58
2021/07/11 05:34:45;;;;;;;10.13;4.65;;;27.70;57.20;;;;;;5050848;28;20029;-59
2021/07/11 05:37:11;;;;;;;10.15;4.90;;;27.60;57.20;;;;;;5051510;28;20033;-58
2021/07/11 05:39:38;;;;;;;9.32;4.85;;;27.60;57.40;;;;;;5050644;28;20036;-59
2021/07/11 05:42:04;;;;;;;10.80;6.68;;;27.70;57.40;;;;;;5051075;28;20036;-58
2021/07/11 05:44:30;;;;;;;10.70;7.03;;;27.70;57.40;;;;;;5050710;28;20025;-58
2021/07/11 05:46:56;;;;;;;10.80;5.00;;;27.70;57.40;;;;;;5050298;28;20106;-59
2021/07/11 05:49:22;;;;;;;15.60;5.88;;;27.70;57.50;;;;;;5032984;28;20029;-58
2021/07/11 05:51:48;;;;;;;14.27;5.32;;;27.60;57.50;;;;;;5033073;28;20033;-58
2021/07/11 05:54:14;;;;;;;10.77;4.63;;;27.60;57.40;;;;;;5050632;28;20029;-59
2021/07/11 05:56:40;;;;;;;12.15;4.80;;;27.60;57.40;;;;;;5033214;28;20029;-58
2021/07/11 05:59:06;;;;;;;11.82;4.60;;;27.60;57.60;;;;;;5048482;28;20033;-58
2021/07/11 06:01:32;;;;;;;10.45;4.90;;;27.60;57.70;;;;;;5050476;28;20437;-58
2021/07/11 06:03:58;;;;;;;11.23;4.40;;;27.50;58.00;;;;;;5048107;28;20033;-58
2021/07/11 06:06:24;;;;;;;16.17;5.30;;;27.20;58.30;;;;;;5043570;28;20047;-58
2021/07/11 06:08:50;;;;;;;16.55;4.97;;;27.10;58.60;;;;;;5038292;28;20479;-58
2021/07/11 06:11:16;;;;;;;13.30;4.88;;;27.00;59.00;;;;;;5048254;28;20032;-58
2021/07/11 06:13:43;;;;;;;10.75;4.45;;;26.80;59.30;;;;;;5050738;28;20115;-58
2021/07/11 06:16:09;;;;;;;8.18;4.57;;;26.60;59.90;;;;;;5049918;28;20100;-58
2021/07/11 06:18:35;;;;;;;9.95;4.75;;;26.50;60.40;;;;;;5035050;28;20140;-58
2021/07/11 06:21:01;;;;;;;9.30;5.47;;;26.30;60.90;;;;;;5051452;28;20037;-58
2021/07/11 06:23:27;;;;;;;12.52;4.90;;;26.20;61.00;;;;;;5052517;28;20104;-58
2021/07/11 06:25:53;;;;;;;11.32;5.03;;;26.10;61.60;;;;;;5053501;28;20100;-58
2021/07/11 06:28:19;;;;;;;10.25;5.03;;;26.00;61.90;;;;;;5053425;28;20032;-58
2021/07/11 06:30:45;;;;;;;13.20;5.18;;;26.00;61.90;;;;;;5053314;28;20059;-58
2021/07/11 06:33:11;;;;;;;13.60;4.63;;;26.00;61.90;;;;;;5052096;28;20425;-58
2021/07/11 06:35:37;;;;;;;9.90;4.97;;;26.10;61.80;;;;;;5052583;28;20154;-58
2021/07/11 06:38:03;;;;;;;17.83;5.53;;;26.10;61.60;;;;;;5053605;28;20067;-57
2021/07/11 06:40:29;;;;;;;12.90;5.75;;;26.20;61.50;;;;;;5052124;28;20024;-58
2021/07/11 06:42:55;;;;;;;7.53;5.15;;;26.30;61.40;;;;;;5053052;28;20044;-57
2021/07/11 06:45:21;;;;;;;8.93;4.35;;;26.30;61.20;;;;;;5050538;28;20025;-59
2021/07/11 06:47:47;;;;;;;7.88;4.43;;;26.40;60.90;;;;;;5051607;28;20522;-61
2021/07/11 06:50:15;;;;;;;11.35;4.80;;;26.50;60.80;;;;;;5041985;28;20021;-57
2021/07/11 06:52:41;;;;;;;12.77;6.93;;;26.60;60.80;;;;;;5044873;28;20027;-58
2021/07/11 06:55:08;;;;;;;10.27;5.30;;;26.60;60.70;;;;;;5045749;28;20029;-58
2021/07/11 06:57:35;;;;;;;14.23;5.47;;;26.60;60.80;;;;;;5050013;28;20036;-59
2021/07/11 07:00:03;;;;;;;9.15;5.05;;;26.70;61.40;;;;;;5051609;28;20041;-58
2021/07/11 07:02:29;;;;;;;12.23;5.20;;;26.60;61.20;;;;;;5051213;28;20036;-58
2021/07/11 07:04:55;;;;;;;11.23;5.38;;;26.60;61.70;;;;;;5049083;28;20021;-58
2021/07/11 07:07:21;;;;;;;14.52;6.30;;;26.60;61.80;;;;;;5045683;28;20029;-58
2021/07/11 07:09:47;;;;;;;12.70;4.78;;;26.50;61.80;;;;;;5047790;28;20017;-58
2021/07/11 07:12:13;;;;;;;11.73;5.15;;;26.40;62.10;;;;;;5043712;28;20088;-58
2021/07/11 07:14:39;;;;;;;11.50;5.65;;;26.40;62.50;;;;;;5043074;28;20353;-58
2021/07/11 07:17:05;;;;;;;8.85;5.00;;;26.30;62.70;;;;;;5045363;28;20057;-57
2021/07/11 07:19:31;;;;;;;14.80;5.90;;;26.30;63.00;;;;;;5047987;28;20045;-58
2021/07/11 07:21:58;;;;;;;13.60;5.57;;;26.20;63.20;;;;;;5044470;28;20136;-58
2021/07/11 07:24:24;;;;;;;12.15;5.18;;;26.20;63.40;;;;;;5049194;28;20059;-59
2021/07/11 07:26:50;;;;;;;17.35;5.72;;;26.20;63.10;;;;;;5047571;28;20033;-58
2021/07/11 07:29:16;;;;;;;12.73;5.82;;;26.10;63.30;;;;;;5031265;28;20100;-58
2021/07/11 07:31:43;;;;;;;14.48;6.43;;;26.00;63.50;;;;;;5045131;28;20108;-57
2021/07/11 07:34:09;;;;;;;10.65;5.85;;;25.80;64.00;;;;;;5049007;28;20071;-58
2021/07/11 07:36:35;;;;;;;15.18;6.25;;;25.80;64.40;;;;;;5045815;28;20017;-57
2021/07/11 07:39:03;;;;;;;13.77;6.60;;;25.80;65.20;;;;;;5037405;28;20079;-58
2021/07/11 07:41:29;;;;;;;11.43;5.80;;;25.70;65.80;;;;;;5052239;28;20033;-58
2021/07/11 07:43:55;;;;;;;12.50;6.10;;;25.70;66.20;;;;;;5050278;28;20057;-58
2021/07/11 07:46:22;;;;;;;12.77;6.47;;;25.70;65.80;;;;;;5029672;28;20426;-58
2021/07/11 07:48:48;;;;;;;9.63;5.57;;;25.70;66.40;;;;;;5050549;28;20036;-58
2021/07/11 07:51:14;;;;;;;14.77;6.82;;;25.60;65.50;;;;;;5051085;28;20032;-57
2021/07/11 07:53:40;;;;;;;11.38;5.65;;;25.60;65.70;;;;;;5033822;28;20389;-58
2021/07/11 07:56:06;;;;;;;13.93;5.22;;;25.60;65.70;;;;;;5051878;28;20028;-59
2021/07/11 07:58:32;;;;;;;16.70;5.70;;;25.60;65.50;;;;;;5034002;28;20598;-58
2021/07/11 08:00:58;;;;;;;10.60;5.57;;;25.70;65.10;;;;;;5033236;28;20025;-59
2021/07/11 08:03:24;;;;;;;9.70;5.40;;;25.90;64.50;;;;;;5050740;28;20048;-59
2021/07/11 08:05:50;;;;;;;16.10;5.50;;;26.00;63.80;;;;;;5052258;28;20388;-59
2021/07/11 08:08:16;;;;;;;15.73;6.07;;;26.10;63.20;;;;;;5052478;28;20036;-58
2021/07/11 08:10:42;;;;;;;10.10;5.10;;;26.20;62.70;;;;;;5051453;28;20059;-58
2021/07/11 08:13:08;;;;;;;10.73;5.22;;;26.30;62.50;;;;;;5050095;28;20024;-59
2021/07/11 08:15:34;;;;;;;12.77;5.53;;;26.40;62.50;;;;;;5050002;28;20487;-58
2021/07/11 08:18:00;;;;;;;12.68;7.15;;;26.40;62.30;;;;;;5049197;28;20032;-58
2021/07/11 08:20:26;;;;;;;17.27;5.63;;;26.50;62.50;;;;;;5049767;28;20431;-58
2021/07/11 08:22:53;;;;;;;15.55;5.15;;;26.50;62.20;;;;;;5050218;28;20037;-59
2021/07/11 08:25:19;;;;;;;14.68;6.00;;;26.60;62.00;;;;;;5050924;28;20037;-58
2021/07/11 08:27:46;;;;;;;13.70;5.07;;;26.60;62.10;;;;;;5031838;28;20048;-58
2021/07/11 08:30:14;;;;;;;10.88;4.45;;;26.70;62.20;;;;;;5051744;28;20073;-58
2021/07/11 08:32:40;;;;;;;11.00;4.70;;;26.70;62.10;;;;;;5052135;28;20021;-58
2021/07/11 08:35:07;;;;;;;12.15;4.95;;;26.80;62.20;;;;;;5051416;28;20036;-59
2021/07/11 08:37:34;;;;;;;13.90;4.78;;;26.80;61.90;;;;;;5022207;28;20431;-58
2021/07/11 08:40:03;;;;;;;9.68;4.50;;;26.90;62.10;;;;;;5050061;28;20025;-57
2021/07/11 08:42:29;;;;;;;8.63;4.15;;;27.00;61.80;;;;;;5051263;28;20047;-58
2021/07/11 08:44:55;;;;;;;7.70;4.25;;;27.00;61.50;;;;;;5050378;28;20025;-57
2021/07/11 08:47:21;;;;;;;10.40;4.45;;;27.10;61.70;;;;;;5016696;28;20025;-58
2021/07/11 08:49:48;;;;;;;10.73;4.50;;;27.20;61.50;;;;;;5032741;28;20427;-56
2021/07/11 08:52:14;;;;;;;10.38;4.65;;;27.40;61.30;;;;;;5051328;28;20040;-60
2021/07/11 08:54:41;;;;;;;10.02;4.15;;;27.40;61.30;;;;;;5050893;28;20031;-58
2021/07/11 08:57:10;;;;;;;11.75;5.40;;;27.60;61.20;;;;;;5051272;28;20408;-59
2021/07/11 08:59:37;;;;;;;15.43;4.70;;;27.60;61.50;;;;;;5033812;28;20029;-58
2021/07/11 09:02:03;;;;;;;11.18;3.80;;;27.60;61.70;;;;;;5051042;28;20033;-58
2021/07/11 09:04:45;;;;;;;11.68;4.72;;;27.60;62.20;;;;;;5049473;28;20549;-58
2021/07/11 09:07:20;;;;;;;9.75;5.13;;;27.70;62.80;;;;;;5049920;28;20025;-56
2021/07/11 09:09:55;;;;;;;9.32;4.10;;;27.70;63.50;;;;;;5050319;28;20577;-57
2021/07/11 09:12:21;;;;;;;16.23;5.28;;;27.80;63.70;;;;;;5050923;28;20032;-57
2021/07/11 09:14:47;;;;;;;9.30;4.55;;;27.80;63.70;;;;;;5050004;28;20021;-58
2021/07/11 09:17:14;;;;;;;10.15;4.93;;;27.80;63.70;;;;;;5050651;28;20029;-59
2021/07/11 09:19:44;;;;;;;7.15;4.60;;;27.80;64.20;;;;;;5043342;28;20508;-57
2021/07/11 09:22:11;;;;;;;13.98;5.25;;;27.70;64.50;;;;;;5040107;28;20516;-57
2021/07/11 09:24:50;;;;;;;10.98;4.78;;;27.70;64.60;;;;;;5049863;28;20053;-57
2021/07/11 09:27:19;;;;;;;17.00;5.00;;;27.70;64.00;;;;;;5041701;28;20030;-57
2021/07/11 09:29:46;;;;;;;11.10;4.70;;;27.80;63.70;;;;;;5040731;28;20142;-58
2021/07/11 09:32:34;;;;;;;6.53;4.32;;;27.90;63.40;;;;;;5031203;28;20021;-58
2021/07/11 09:35:13;;;;;;;7.78;3.78;;;27.90;62.20;;;;;;5032957;28;20130;-58
2021/07/11 09:37:42;;;;;;;12.48;4.38;;;28.10;61.60;;;;;;5033157;28;20029;-58
2021/07/11 09:40:09;;;;;;;12.10;4.72;;;28.20;60.60;;;;;;5050192;28;20025;-58
2021/07/11 09:42:38;;;;;;;10.77;4.60;;;28.20;60.00;;;;;;5049917;28;20060;-58
2021/07/11 09:45:21;;;;;;;8.93;4.82;;;28.20;59.80;;;;;;5032129;28;20083;-58
2021/07/11 09:47:50;;;;;;;11.02;4.25;;;28.20;59.90;;;;;;5049198;28;20131;-58
2021/07/11 09:50:24;;;;;;;12.10;5.05;;;28.20;60.00;;;;;;5050860;28;20036;-58
2021/07/11 09:52:52;;;;;;;11.43;5.22;;;28.20;59.80;;;;;;5050584;28;20033;-58
2021/07/11 09:55:20;;;;;;;16.20;4.78;;;28.20;60.20;;;;;;5038478;28;20361;-58
2021/07/11 09:57:55;;;;;;;11.25;4.95;;;28.30;60.70;;;;;;5053822;28;20017;-59
2021/07/11 10:00:36;;;;;;;9.25;4.68;;;28.40;60.60;;;;;;5035587;28;20104;-58
2021/07/11 10:03:05;;;;;;;7.70;4.00;;;28.40;60.60;;;;;;5047207;28;20044;-59
2021/07/11 10:05:32;;;;;;;7.53;4.20;;;28.50;60.40;;;;;;5053953;28;20040;-59
2021/07/11 10:07:59;;;;;;;17.13;4.88;;;28.60;60.40;;;;;;5054213;28;20025;-60
2021/07/11 10:10:32;;;;;;;10.32;5.07;;;28.70;60.10;;;;;;5054063;28;20450;-59
2021/07/11 10:12:59;;;;;;;9.20;4.82;;;28.80;59.80;;;;;;5053824;28;20475;-59
2021/07/11 10:15:28;;;;;;;8.93;4.50;;;28.90;59.60;;;;;;5054117;28;20052;-59
2021/07/11 10:18:05;;;;;;;10.25;4.75;;;28.90;59.60;;;;;;5035915;28;20534;-59
2021/07/11 10:20:34;;;;;;;8.95;4.43;;;28.90;59.10;;;;;;5030671;28;20034;-58
2021/07/11 10:23:01;;;;;;;12.07;4.53;;;29.00;59.20;;;;;;5016262;28;20037;-58
2021/07/11 10:25:29;;;;;;;11.95;4.50;;;29.00;58.70;;;;;;5039200;28;20372;-61
2021/07/11 10:28:13;;;;;;;9.27;4.72;;;28.90;58.90;;;;;;5025559;28;20065;-58
2021/07/11 10:30:44;;;;;;;8.15;3.50;;;28.90;59.20;;;;;;5044731;28;20029;-59
2021/07/11 10:33:12;;;;;;;16.75;4.40;;;29.10;59.00;;;;;;5052551;28;20025;-59
2021/07/11 10:35:58;;;;;;;13.00;4.22;;;29.10;59.00;;;;;;5020484;28;20113;-58
2021/07/11 10:38:36;;;;;;;8.68;3.75;;;29.20;58.90;;;;;;5053679;28;20033;-59
2021/07/11 10:41:30;;;;;;;9.50;4.22;;;29.30;58.50;;;;;;5052958;28;20028;-57
2021/07/11 10:44:03;;;;;;;11.07;4.35;;;29.40;58.00;;;;;;5051441;28;20045;-58
2021/07/11 10:46:38;;;;;;;11.93;4.72;;;29.30;58.10;;;;;;5034644;28;20033;-59
2021/07/11 10:49:14;;;;;;;7.78;4.57;;;29.30;58.70;;;;;;5053817;28;20029;-57
2021/07/11 10:51:46;;;;;;;7.30;3.60;;;29.10;59.00;;;;;;5053770;28;20117;-57
2021/07/11 10:54:22;;;;;;;11.98;4.60;;;29.00;59.80;;;;;;5052574;28;20029;-58
2021/07/11 10:56:48;;;;;;;12.63;4.80;;;28.90;59.90;;;;;;5053498;28;20033;-58
2021/07/11 10:59:34;;;;;;;10.00;4.68;;;28.90;60.00;;;;;;5052755;28;20032;-58
2021/07/11 11:02:04;;;;;;;10.25;4.82;;;28.80;60.70;;;;;;5015335;28;20140;-59
2021/07/11 11:04:30;;;;;;;13.20;4.68;;;28.70;60.80;;;;;;5017542;28;20032;-58
2021/07/11 11:06:56;;;;;;;11.45;4.90;;;28.70;60.90;;;;;;5052030;28;20424;-58
2021/07/11 11:09:47;;;;;;;10.98;5.13;;;28.70;61.10;;;;;;5017839;28;20116;-58
2021/07/11 11:12:30;;;;;;;11.63;4.82;;;28.80;61.00;;;;;;5001020;28;20112;-59
2021/07/11 11:15:01;;;;;;;7.93;3.83;;;28.80;60.40;;;;;;5032518;28;20032;-58
2021/07/11 11:17:35;;;;;;;7.22;4.30;;;28.80;60.10;;;;;;5032678;28;20029;-59
2021/07/11 11:20:18;;;;;;;19.30;5.45;;;28.90;60.10;;;;;;5032684;28;20430;-59
2021/07/11 11:22:56;;;;;;;9.25;4.85;;;28.90;59.80;;;;;;5052081;28;20376;-58
2021/07/11 11:25:23;;;;;;;9.13;4.43;;;28.90;59.80;;;;;;5041608;28;20124;-59
2021/07/11 11:27:54;;;;;;;11.43;4.50;;;29.00;60.00;;;;;;5051311;28;20029;-59
2021/07/11 11:30:23;;;;;;;13.48;4.72;;;29.00;59.80;;;;;;5033070;28;20585;-59
2021/07/11 11:32:51;;;;;;;11.95;4.78;;;29.00;59.70;;;;;;5051992;28;20025;-58
2021/07/11 11:35:25;;;;;;;9.13;5.18;;;28.90;60.00;;;;;;5052225;28;20033;-58
2021/07/11 11:37:54;;;;;;;11.27;4.72;;;28.80;60.20;;;;;;5027875;28;20029;-58
2021/07/11 11:40:21;;;;;;;14.43;4.60;;;28.60;60.60;;;;;;5030790;28;20036;-57
2021/07/11 11:42:54;;;;;;;11.73;5.13;;;28.50;60.90;;;;;;5052155;28;20159;-57
2021/07/11 11:45:27;;;;;;;15.43;5.03;;;28.40;61.40;;;;;;5051935;28;20028;-58
2021/07/11 11:48:12;;;;;;;12.00;4.70;;;28.30;61.70;;;;;;5033916;28;20028;-58
2021/07/11 11:50:41;;;;;;;13.50;5.75;;;28.30;61.60;;;;;;5014357;28;20377;-59
2021/07/11 11:53:12;;;;;;;14.60;5.70;;;28.40;61.40;;;;;;5032070;28;20033;-58
2021/07/11 11:55:58;;;;;;;13.05;4.72;;;28.30;62.10;;;;;;5046302;28;20029;-58
2021/07/11 11:58:31;;;;;;;13.68;5.00;;;28.20;62.20;;;;;;5050679;28;20043;-58
2021/07/11 12:01:09;;;;;;;13.63;5.05;;;28.10;62.70;;;;;;5051106;28;20115;-58
2021/07/11 12:03:38;;;;;;;10.73;4.95;;;28.10;62.50;;;;;;5051974;28;20037;-59
2021/07/11 12:06:10;;;;;;;10.80;4.50;;;28.10;62.50;;;;;;5051889;28;20182;-59
2021/07/11 12:08:39;;;;;;;15.90;5.03;;;28.20;62.20;;;;;;5034145;28;20155;-58
2021/07/11 12:11:06;;;;;;;14.43;6.57;;;28.30;61.90;;;;;;5051834;28;20468;-60
2021/07/11 12:13:33;;;;;;;8.95;4.57;;;28.30;61.80;;;;;;5034295;28;20029;-59
2021/07/11 12:16:16;;;;;;;14.23;5.32;;;28.20;62.10;;;;;;5051585;28;20032;-59
2021/07/11 12:18:42;;;;;;;13.45;5.07;;;28.10;62.20;;;;;;5034625;28;20098;-58
2021/07/11 12:21:08;;;;;;;13.43;4.90;;;28.10;62.30;;;;;;5049853;28;20064;-60
2021/07/11 12:23:34;;;;;;;15.35;5.60;;;28.00;62.20;;;;;;5031972;28;20040;-59
2021/07/11 12:26:03;;;;;;;13.65;4.70;;;27.90;62.50;;;;;;5031913;28;20029;-57
2021/07/11 12:28:31;;;;;;;13.40;6.40;;;27.90;62.80;;;;;;5031972;28;20139;-58
2021/07/11 12:30:57;;;;;;;7.60;4.38;;;27.90;63.10;;;;;;5031785;28;20164;-58
2021/07/11 12:33:28;;;;;;;11.25;5.40;;;28.00;62.90;;;;;;5032111;28;20112;-58
2021/07/11 12:35:58;;;;;;;13.27;6.05;;;28.10;63.10;;;;;;5049351;28;20597;-57
2021/07/11 12:38:28;;;;;;;;;;;28.20;62.70;;;;;;5050445;28;20324;-59
2021/07/11 12:40:58;;;;;;;9.18;5.30;;;28.10;62.60;;;;;;5049928;28;19908;-59
2021/07/11 12:43:31;;;;;;;13.68;5.43;;;28.20;62.30;;;;;;5051008;28;20043;-59
2021/07/11 12:46:06;;;;;;;11.68;5.50;;;28.20;62.30;;;;;;5050793;28;20073;-59
2021/07/11 12:48:45;;;;;;;12.32;5.50;;;28.30;61.90;;;;;;5050224;28;20498;-59
2021/07/11 12:51:17;;;;;;;9.68;6.00;;;28.40;61.70;;;;;;5051065;28;20032;-59
2021/07/11 12:53:55;;;;;;;11.18;6.13;;;28.50;61.50;;;;;;5051206;28;20033;-59